Time;durP1;ratioP1;P1;durP2;ratioP2;P2;SDS_P1;SDS_P2;PMS_P1;PMS_P2;Temp;Humidity;BMP_temperature;BMP_pressure;BME280_temperature;BME280_humidity;BME280_pressure;Samples;Min_cycle;Max_cycle;Signal;HPM_P1;HPM_P2
2021/12/02 00:00:32;;;;;;;;;6.00;5.00;;;;;;;;5029204;28;49768;-67
2021/12/02 00:02:58;;;;;;;;;5.75;2.75;;;;;;;;5011214;28;49726;-68
2021/12/02 00:05:23;;;;;;;;;5.75;5.75;;;;;;;;5029553;28;49710;-65
2021/12/02 00:07:49;;;;;;;;;6.00;6.00;;;;;;;;5011358;28;51552;-68
2021/12/02 00:10:14;;;;;;;;;6.25;6.00;;;;;;;;5029183;28;50049;-68
2021/12/02 00:12:39;;;;;;;;;7.00;5.00;;;;;;;;5011432;28;49704;-66
2021/12/02 00:15:07;;;;;;;;;4.00;3.50;;;;;;;;5028363;28;49671;-66
2021/12/02 00:17:38;;;;;;;;;7.50;6.00;;;;;;;;5028839;28;50636;-66
2021/12/02 00:23:11;;;;;;;;;10.00;7.00;;;;;;;;5029017;28;50129;-66
2021/12/02 00:25:36;;;;;;;;;12.00;7.75;;;;;;;;5011189;28;49847;-66
2021/12/02 00:28:03;;;;;;;;;8.25;7.75;;;;;;;;5028846;28;51006;-65
2021/12/02 00:30:28;;;;;;;;;7.75;5.25;;;;;;;;5028941;28;49971;-66
2021/12/02 00:32:55;;;;;;;;;8.50;7.00;;;;;;;;5029207;28;50010;-66
2021/12/02 00:35:21;;;;;;;;;9.75;7.00;;;;;;;;5028829;28;49845;-65
2021/12/02 00:37:46;;;;;;;;;7.00;6.00;;;;;;;;5028576;28;50555;-66
2021/12/02 00:40:11;;;;;;;;;8.00;8.00;;;;;;;;5028981;28;49865;-66
2021/12/02 00:42:38;;;;;;;;;5.25;5.25;;;;;;;;5028849;28;49952;-66
2021/12/02 00:45:04;;;;;;;;;6.75;5.50;;;;;;;;5011108;28;49735;-66
2021/12/02 00:47:29;;;;;;;;;13.75;7.50;;;;;;;;5028617;28;51366;-66
2021/12/02 00:49:54;;;;;;;;;7.00;6.00;;;;;;;;5010361;28;49944;-66
2021/12/02 00:52:20;;;;;;;;;6.25;6.25;;;;;;;;5028890;28;49755;-66
2021/12/02 00:54:46;;;;;;;;;6.00;6.00;;;;;;;;5010926;28;49745;-66
2021/12/02 00:57:12;;;;;;;;;8.00;7.00;;;;;;;;5028383;28;49792;-66
2021/12/02 00:59:38;;;;;;;;;8.75;7.50;;;;;;;;5028944;28;49805;-66
2021/12/02 01:02:03;;;;;;;;;8.00;7.50;;;;;;;;5028522;28;49965;-66
2021/12/02 01:04:29;;;;;;;;;12.75;9.00;;;;;;;;5027519;28;49802;-66
2021/12/02 01:06:54;;;;;;;;;7.25;7.25;;;;;;;;5028574;28;49844;-66
2021/12/02 01:09:19;;;;;;;;;11.00;8.50;;;;;;;;5028475;28;49542;-66
2021/12/02 01:11:45;;;;;;;;;7.75;6.75;;;;;;;;5028172;28;50045;-66
2021/12/02 01:14:10;;;;;;;;;11.00;11.00;;;;;;;;5028610;28;49808;-66
2021/12/02 01:16:36;;;;;;;;;9.50;8.75;;;;;;;;5028446;28;50963;-66
2021/12/02 01:19:02;;;;;;;;;9.25;9.25;;;;;;;;5028441;28;49736;-66
2021/12/02 01:21:28;;;;;;;;;6.75;6.50;;;;;;;;5028491;28;49700;-66
2021/12/02 01:24:02;;;;;;;;;6.75;6.75;;;;;;;;5028492;28;50049;-66
2021/12/02 01:26:27;;;;;;;;;9.50;7.75;;;;;;;;5028016;28;50967;-66
2021/12/02 01:28:53;;;;;;;;;9.75;7.75;;;;;;;;5028051;28;49744;-66
2021/12/02 01:31:18;;;;;;;;;7.25;7.25;;;;;;;;5028503;28;49975;-66
2021/12/02 01:33:45;;;;;;;;;7.25;6.00;;;;;;;;5028340;28;49871;-66
2021/12/02 01:36:10;;;;;;;;;9.25;8.00;;;;;;;;5027807;28;49969;-66
2021/12/02 01:38:35;;;;;;;;;7.00;7.00;;;;;;;;5028242;28;49830;-66
2021/12/02 01:41:02;;;;;;;;;7.50;7.50;;;;;;;;5010051;28;50034;-66
2021/12/02 01:43:48;;;;;;;;;6.75;5.50;;;;;;;;5028322;28;49635;-66
2021/12/02 01:46:18;;;;;;;;;7.00;7.00;;;;;;;;5027825;28;50852;-66
2021/12/02 01:48:46;;;;;;;;;10.50;8.50;;;;;;;;5027974;28;49747;-66
2021/12/02 01:51:12;;;;;;;;;9.25;7.00;;;;;;;;5009801;28;49569;-66
2021/12/02 01:53:39;;;;;;;;;6.50;5.00;;;;;;;;5028224;28;49646;-65
2021/12/02 01:56:09;;;;;;;;;8.50;7.50;;;;;;;;5009846;28;51710;-66
2021/12/02 01:58:43;;;;;;;;;7.50;6.00;;;;;;;;5027961;28;49685;-66
2021/12/02 02:01:23;;;;;;;;;11.00;6.25;;;;;;;;5027896;28;49588;-66
2021/12/02 02:03:49;;;;;;;;;10.00;10.00;;;;;;;;5027928;28;49954;-65
2021/12/02 02:06:22;;;;;;;;;6.50;6.50;;;;;;;;5027292;28;49648;-66
2021/12/02 02:08:48;;;;;;;;;6.75;6.25;;;;;;;;5027869;28;49935;-66
2021/12/02 02:11:13;;;;;;;;;7.75;7.25;;;;;;;;5027745;28;49844;-66
2021/12/02 02:13:41;;;;;;;;;7.25;7.25;;;;;;;;5027770;28;49942;-66
2021/12/02 02:16:07;;;;;;;;;7.25;6.50;;;;;;;;5027238;28;49923;-66
2021/12/02 02:18:32;;;;;;;;;5.25;4.25;;;;;;;;5027511;28;49724;-66
2021/12/02 02:21:08;;;;;;;;;9.50;6.00;;;;;;;;5027550;28;49936;-66
2021/12/02 02:23:38;;;;;;;;;10.50;6.25;;;;;;;;5009672;28;49871;-66
2021/12/02 02:26:05;;;;;;;;;7.75;7.00;;;;;;;;5027660;27;49885;-66
2021/12/02 02:28:31;;;;;;;;;6.00;6.00;;;;;;;;5027484;28;49648;-66
2021/12/02 02:30:56;;;;;;;;;8.00;4.25;;;;;;;;5027532;28;49810;-66
2021/12/02 02:33:23;;;;;;;;;5.25;5.25;;;;;;;;5027606;28;50257;-66
2021/12/02 02:35:48;;;;;;;;;6.00;6.00;;;;;;;;5026918;28;49853;-66
2021/12/02 02:38:14;;;;;;;;;6.50;5.00;;;;;;;;5027149;28;49683;-66
2021/12/02 02:40:42;;;;;;;;;5.50;5.50;;;;;;;;5027268;28;49633;-66
2021/12/02 02:43:08;;;;;;;;;6.00;2.75;;;;;;;;5027456;28;49872;-66
2021/12/02 02:45:34;;;;;;;;;4.75;2.50;;;;;;;;5027075;28;50406;-66
2021/12/02 02:48:00;;;;;;;;;2.00;2.00;;;;;;;;5027197;28;49834;-66
2021/12/02 02:50:25;;;;;;;;;4.25;3.00;;;;;;;;5026907;28;50117;-65
2021/12/02 02:52:59;;;;;;;;;2.50;2.50;;;;;;;;5027602;28;49892;-66
2021/12/02 02:55:25;;;;;;;;;0.00;0.00;;;;;;;;5026927;28;49938;-65
2021/12/02 02:58:01;;;;;;;;;5.50;4.00;;;;;;;;5027120;28;49764;-66
2021/12/02 03:00:41;;;;;;;;;4.00;2.50;;;;;;;;5027001;28;49820;-66
2021/12/02 03:03:24;;;;;;;;;3.50;2.00;;;;;;;;5027130;28;50004;-65
2021/12/02 03:08:41;;;;;;;;;3.00;3.00;;;;;;;;5026933;28;49827;-66
2021/12/02 03:11:09;;;;;;;;;4.00;3.00;;;;;;;;5026780;28;49760;-66
2021/12/02 03:13:46;;;;;;;;;2.75;1.25;;;;;;;;5008700;28;49908;-65
2021/12/02 03:18:55;;;;;;;;;1.25;1.25;;;;;;;;5026648;28;50082;-66
2021/12/02 03:21:21;;;;;;;;;1.75;1.00;;;;;;;;5026558;28;49707;-66
2021/12/02 03:23:50;;;;;;;;;2.75;1.50;;;;;;;;5026733;28;49935;-66
2021/12/02 03:26:16;;;;;;;;;1.00;1.00;;;;;;;;5027115;28;50542;-66
2021/12/02 03:28:41;;;;;;;;;4.75;0.75;;;;;;;;5029661;28;49644;-66
2021/12/02 03:31:09;;;;;;;;;1.50;0.50;;;;;;;;5029791;28;50039;-65
2021/12/02 03:33:34;;;;;;;;;2.00;2.00;;;;;;;;5030075;28;49816;-66
2021/12/02 03:35:59;;;;;;;;;2.00;1.00;;;;;;;;5029420;28;50986;-66
2021/12/02 03:38:24;;;;;;;;;0.75;0.75;;;;;;;;5029790;28;49781;-66
2021/12/02 03:40:50;;;;;;;;;1.75;1.25;;;;;;;;5029661;28;49649;-66
2021/12/02 03:43:15;;;;;;;;;0.50;0.50;;;;;;;;5029723;28;49680;-66
2021/12/02 03:45:40;;;;;;;;;0.25;0.25;;;;;;;;5029382;28;50692;-66
2021/12/02 03:48:05;;;;;;;;;2.25;1.00;;;;;;;;5029581;28;49891;-66
2021/12/02 03:50:31;;;;;;;;;2.00;0.75;;;;;;;;5029352;28;49783;-66
2021/12/02 03:52:56;;;;;;;;;1.50;1.50;;;;;;;;5029827;28;49621;-66
2021/12/02 03:55:21;;;;;;;;;1.25;1.25;;;;;;;;5011332;28;51930;-65
2021/12/02 03:57:46;;;;;;;;;1.00;0.00;;;;;;;;5029369;28;49697;-66
2021/12/02 04:00:12;;;;;;;;;4.00;2.50;;;;;;;;5011423;28;49571;-66
2021/12/02 04:02:37;;;;;;;;;0.50;0.50;;;;;;;;5029509;28;49588;-65
2021/12/02 04:05:03;;;;;;;;;0.25;0.25;;;;;;;;5011132;28;49766;-65
2021/12/02 04:07:28;;;;;;;;;0.00;0.00;;;;;;;;5029496;28;49808;-65
2021/12/02 04:09:54;;;;;;;;;1.00;1.00;;;;;;;;5011549;28;50337;-65
2021/12/02 04:15:14;;;;;;;;;1.00;1.00;;;;;;;;5012316;28;49876;-65
2021/12/02 04:17:43;;;;;;;;;1.25;1.25;;;;;;;;5029152;28;49733;-65
2021/12/02 04:20:11;;;;;;;;;2.00;2.00;;;;;;;;5028925;28;49801;-65
2021/12/02 04:22:36;;;;;;;;;0.00;0.00;;;;;;;;5029138;27;49993;-65
2021/12/02 04:25:02;;;;;;;;;0.00;0.00;;;;;;;;5028781;28;50643;-64
2021/12/02 04:27:27;;;;;;;;;4.75;1.00;;;;;;;;5029111;28;49684;-65
2021/12/02 04:29:52;;;;;;;;;1.00;1.00;;;;;;;;5029289;28;49743;-65
2021/12/02 04:32:17;;;;;;;;;2.25;2.25;;;;;;;;5029142;28;49767;-65
2021/12/02 04:34:42;;;;;;;;;1.50;1.00;;;;;;;;5028430;28;49878;-65
2021/12/02 04:37:08;;;;;;;;;3.50;3.50;;;;;;;;5028863;28;49783;-65
2021/12/02 04:39:33;;;;;;;;;1.75;1.00;;;;;;;;5028859;28;49807;-65
2021/12/02 04:41:58;;;;;;;;;3.00;2.50;;;;;;;;5029089;28;49811;-65
2021/12/02 04:44:23;;;;;;;;;2.50;2.00;;;;;;;;5028708;28;49916;-65
2021/12/02 04:46:50;;;;;;;;;4.25;2.25;;;;;;;;5028862;28;49809;-65
2021/12/02 04:49:15;;;;;;;;;7.00;5.00;;;;;;;;5028507;28;49945;-65
2021/12/02 04:51:41;;;;;;;;;4.00;4.00;;;;;;;;5028943;28;49692;-65
2021/12/02 04:54:06;;;;;;;;;4.00;2.50;;;;;;;;5028448;28;50088;-65
2021/12/02 04:56:31;;;;;;;;;3.50;3.00;;;;;;;;5028715;28;50231;-65
2021/12/02 04:58:56;;;;;;;;;6.50;3.00;;;;;;;;5028798;28;49747;-65
2021/12/02 05:01:22;;;;;;;;;2.50;2.50;;;;;;;;5029025;28;49994;-65
2021/12/02 05:03:47;;;;;;;;;3.25;2.25;;;;;;;;5028466;28;50076;-65
2021/12/02 05:06:12;;;;;;;;;1.75;1.75;;;;;;;;5028140;28;49698;-65
2021/12/02 05:08:37;;;;;;;;;2.00;2.00;;;;;;;;5028678;28;50675;-66
2021/12/02 05:11:03;;;;;;;;;1.75;1.75;;;;;;;;5028662;28;49972;-65
2021/12/02 05:13:28;;;;;;;;;2.00;2.00;;;;;;;;5028292;28;49954;-65
2021/12/02 05:15:53;;;;;;;;;1.00;0.75;;;;;;;;5028451;27;49849;-65
2021/12/02 05:18:19;;;;;;;;;2.75;1.75;;;;;;;;5028532;28;49821;-65
2021/12/02 05:20:46;;;;;;;;;2.50;2.00;;;;;;;;5010355;28;49985;-65
2021/12/02 05:23:11;;;;;;;;;2.00;2.00;;;;;;;;5028063;28;49739;-66
2021/12/02 05:25:36;;;;;;;;;2.00;1.25;;;;;;;;5028221;28;50036;-66
2021/12/02 05:28:02;;;;;;;;;1.25;1.00;;;;;;;;5028507;28;49749;-66
2021/12/02 05:30:27;;;;;;;;;3.50;2.50;;;;;;;;5028388;28;50128;-66
2021/12/02 05:32:52;;;;;;;;;6.75;3.50;;;;;;;;5028051;28;49747;-66
2021/12/02 05:35:17;;;;;;;;;6.00;2.00;;;;;;;;5027909;28;49721;-65
2021/12/02 05:37:43;;;;;;;;;4.50;4.00;;;;;;;;5028399;28;49669;-67
2021/12/02 05:40:08;;;;;;;;;6.00;3.00;;;;;;;;5028261;28;49473;-66
2021/12/02 05:42:35;;;;;;;;;17.00;13.75;;;;;;;;5027842;28;50135;-65
2021/12/02 05:45:00;;;;;;;;;18.00;15.25;;;;;;;;5028107;28;49611;-65
2021/12/02 05:47:26;;;;;;;;;8.50;8.00;;;;;;;;5028010;28;49573;-65
2021/12/02 05:49:51;;;;;;;;;5.75;5.75;;;;;;;;5027148;28;49572;-65
2021/12/02 05:52:16;;;;;;;;;4.75;4.50;;;;;;;;5027887;28;50431;-65
2021/12/02 05:54:42;;;;;;;;;10.25;6.00;;;;;;;;5027818;28;50149;-65
2021/12/02 05:57:07;;;;;;;;;5.25;5.00;;;;;;;;5028029;28;49751;-65
2021/12/02 05:59:32;;;;;;;;;6.00;3.00;;;;;;;;5028223;28;49866;-66
2021/12/02 06:01:58;;;;;;;;;4.00;2.75;;;;;;;;5027533;28;50469;-64
2021/12/02 06:04:23;;;;;;;;;3.00;3.00;;;;;;;;5009616;28;49869;-64
2021/12/02 06:06:49;;;;;;;;;4.50;4.50;;;;;;;;5027733;28;49659;-64
2021/12/02 06:09:18;;;;;;;;;7.25;5.25;;;;;;;;5027991;28;50118;-64
2021/12/02 06:11:43;;;;;;;;;16.00;14.50;;;;;;;;5027488;28;50015;-64
2021/12/02 06:14:09;;;;;;;;;18.00;17.00;;;;;;;;5027492;28;49758;-65
2021/12/02 06:16:34;;;;;;;;;25.50;16.50;;;;;;;;5027699;28;50115;-65
2021/12/02 06:18:59;;;;;;;;;9.00;6.00;;;;;;;;5027580;28;50003;-65
2021/12/02 06:21:24;;;;;;;;;8.50;8.00;;;;;;;;5027300;28;49863;-65
2021/12/02 06:23:52;;;;;;;;;5.50;5.50;;;;;;;;5027250;28;49721;-65
2021/12/02 06:26:18;;;;;;;;;6.00;6.00;;;;;;;;5027702;28;49677;-65
2021/12/02 06:28:43;;;;;;;;;5.25;3.25;;;;;;;;5027846;28;50026;-65
2021/12/02 06:31:09;;;;;;;;;1.00;1.00;;;;;;;;5009399;28;49746;-65
2021/12/02 06:33:34;;;;;;;;;6.00;6.00;;;;;;;;5027334;28;49774;-65
2021/12/02 06:35:59;;;;;;;;;5.25;5.00;;;;;;;;5027055;28;50343;-65
2021/12/02 06:38:25;;;;;;;;;2.50;2.50;;;;;;;;5027288;28;50177;-65
2021/12/02 06:40:50;;;;;;;;;6.50;5.25;;;;;;;;5027284;28;50901;-65
2021/12/02 06:43:16;;;;;;;;;4.50;4.50;;;;;;;;5027267;28;49781;-65
2021/12/02 06:45:42;;;;;;;;;7.50;3.25;;;;;;;;5027333;28;49610;-65
2021/12/02 06:48:07;;;;;;;;;3.00;3.00;;;;;;;;5027535;28;49629;-65
2021/12/02 06:50:34;;;;;;;;;2.50;2.50;;;;;;;;5026860;28;49843;-65
2021/12/02 06:52:59;;;;;;;;;2.25;1.50;;;;;;;;5026932;28;49901;-64
2021/12/02 06:55:25;;;;;;;;;5.50;3.25;;;;;;;;5027110;28;49736;-61
2021/12/02 06:57:51;;;;;;;;;3.75;3.25;;;;;;;;5027191;28;49578;-62
2021/12/02 07:00:17;;;;;;;;;5.50;4.25;;;;;;;;5027379;28;50551;-62
2021/12/02 07:02:43;;;;;;;;;6.25;5.25;;;;;;;;5030033;28;49831;-61
2021/12/02 07:05:09;;;;;;;;;9.00;5.25;;;;;;;;5029915;28;49692;-78
2021/12/02 07:07:38;;;;;;;;;10.25;7.25;;;;;;;;5030406;28;49939;-63
2021/12/02 07:10:04;;;;;;;;;14.00;13.50;;;;;;;;5011836;28;50794;-60
2021/12/02 07:12:33;;;;;;;;;9.00;6.50;;;;;;;;5030050;28;49657;-61
2021/12/02 07:14:59;;;;;;;;;10.00;9.50;;;;;;;;5029679;28;49727;-63
2021/12/02 07:17:24;;;;;;;;;8.75;8.75;;;;;;;;5030061;28;49947;-61
2021/12/02 07:19:50;;;;;;;;;6.25;5.25;;;;;;;;5029540;28;50760;-61
2021/12/02 07:22:15;;;;;;;;;5.00;5.00;;;;;;;;5029921;28;49693;-60
2021/12/02 07:24:40;;;;;;;;;3.25;2.50;;;;;;;;5029992;28;49581;-64
2021/12/02 07:27:06;;;;;;;;;2.75;2.75;;;;;;;;5030102;28;49826;-63
2021/12/02 07:29:31;;;;;;;;;2.25;2.00;;;;;;;;5029524;28;50473;-68
2021/12/02 07:32:00;;;;;;;;;2.00;2.00;;;;;;;;5029843;28;50376;-63
2021/12/02 07:34:28;;;;;;;;;5.00;3.50;;;;;;;;5029411;28;49671;-60
2021/12/02 07:36:56;;;;;;;;;6.00;3.00;;;;;;;;5029924;28;49864;-61
2021/12/02 07:39:22;;;;;;;;;7.25;5.75;;;;;;;;5029705;28;49862;-62
2021/12/02 07:41:48;;;;;;;;;19.25;17.00;;;;;;;;5023882;28;49844;-62
2021/12/02 07:44:13;;;;;;;;;14.00;13.25;;;;;;;;5049669;28;49923;-63
2021/12/02 07:46:39;;;;;;;;;9.75;8.75;;;;;;;;5045976;27;49944;-63
2021/12/02 07:49:04;;;;;;;;;5.00;5.00;;;;;;;;5048529;28;49882;-63
2021/12/02 07:51:31;;;;;;;;;6.00;3.00;;;;;;;;5062476;28;49836;-63
2021/12/02 07:53:58;;;;;;;;;5.75;5.25;;;;;;;;5063926;28;49776;-65
2021/12/02 07:56:24;;;;;;;;;12.00;10.00;;;;;;;;5051850;28;49913;-61
2021/12/02 07:58:49;;;;;;;;;7.75;7.75;;;;;;;;5050989;28;50833;-63
2021/12/02 08:01:16;;;;;;;;;7.25;5.75;;;;;;;;5049059;28;49844;-68
2021/12/02 08:03:44;;;;;;;;;11.00;10.00;;;;;;;;5049222;28;49838;-63
2021/12/02 08:06:14;;;;;;;;;20.00;17.75;;;;;;;;5049543;28;49936;-62
2021/12/02 08:08:39;;;;;;;;;24.00;22.75;;;;;;;;5049031;28;50531;-67
2021/12/02 08:11:05;;;;;;;;;17.25;14.50;;;;;;;;5049205;28;49708;-67
2021/12/02 08:13:31;;;;;;;;;20.75;17.50;;;;;;;;5048648;28;49608;-72
2021/12/02 08:15:56;;;;;;;;;10.75;10.50;;;;;;;;5049309;28;49830;-73
2021/12/02 08:18:21;;;;;;;;;9.75;8.00;;;;;;;;5049268;28;50508;-72
2021/12/02 08:20:47;;;;;;;;;9.50;7.75;;;;;;;;5030885;28;49821;-72
2021/12/02 08:23:12;;;;;;;;;12.50;9.50;;;;;;;;5030671;28;49846;-73
2021/12/02 08:25:37;;;;;;;;;7.00;7.00;;;;;;;;5049210;28;49841;-73
2021/12/02 08:28:03;;;;;;;;;8.00;8.00;;;;;;;;5030691;28;52282;-72
2021/12/02 08:30:33;;;;;;;;;13.25;10.00;;;;;;;;5049027;28;50330;-72
2021/12/02 08:32:59;;;;;;;;;6.75;5.50;;;;;;;;5031035;28;49824;-72
2021/12/02 08:35:25;;;;;;;;;8.00;8.00;;;;;;;;5049248;28;49849;-72
2021/12/02 08:37:54;;;;;;;;;4.50;1.00;;;;;;;;5048932;28;50336;-72
2021/12/02 08:40:28;;;;;;;;;9.75;6.75;;;;;;;;5048803;28;49664;-71
2021/12/02 08:42:53;;;;;;;;;6.00;6.00;;;;;;;;5048950;28;49600;-72
2021/12/02 08:45:19;;;;;;;;;9.25;7.50;;;;;;;;5048873;28;49541;-72
2021/12/02 08:47:44;;;;;;;;;14.25;8.50;;;;;;;;5049166;28;50901;-73
2021/12/02 08:50:11;;;;;;;;;10.25;7.75;;;;;;;;5030363;28;49618;-72
2021/12/02 08:52:36;;;;;;;;;7.25;6.75;;;;;;;;5048985;28;49890;-73
2021/12/02 08:55:01;;;;;;;;;14.00;9.50;;;;;;;;5030683;28;49788;-73
2021/12/02 08:57:26;;;;;;;;;10.75;7.50;;;;;;;;5030696;28;51276;-72
2021/12/02 08:59:52;;;;;;;;;10.25;9.00;;;;;;;;5030522;28;49776;-72
2021/12/02 09:02:17;;;;;;;;;8.50;8.25;;;;;;;;5048530;28;49731;-72
2021/12/02 09:04:42;;;;;;;;;12.50;7.00;;;;;;;;5048474;28;49845;-72
2021/12/02 09:07:08;;;;;;;;;9.25;6.50;;;;;;;;5048554;28;49806;-73
2021/12/02 09:09:34;;;;;;;;;9.00;7.00;;;;;;;;5048604;28;49803;-73
2021/12/02 09:11:59;;;;;;;;;5.00;5.00;;;;;;;;5048555;28;49788;-73
2021/12/02 09:14:25;;;;;;;;;5.75;5.75;;;;;;;;5048403;28;49760;-73
2021/12/02 09:16:51;;;;;;;;;3.00;3.00;;;;;;;;5048898;28;49983;-73
2021/12/02 09:19:17;;;;;;;;;6.00;3.75;;;;;;;;5048137;28;49747;-73
2021/12/02 09:21:42;;;;;;;;;0.75;0.75;;;;;;;;5030248;28;50287;-73
2021/12/02 09:24:07;;;;;;;;;5.25;2.75;;;;;;;;5047669;28;49863;-73
2021/12/02 09:26:33;;;;;;;;;6.75;5.00;;;;;;;;5030253;28;51680;-73
2021/12/02 09:28:59;;;;;;;;;6.00;5.75;;;;;;;;5048376;28;49966;-72
2021/12/02 09:31:24;;;;;;;;;4.50;3.00;;;;;;;;5048694;28;49857;-73
2021/12/02 09:33:50;;;;;;;;;5.00;3.00;;;;;;;;5048412;28;49816;-73
2021/12/02 09:36:16;;;;;;;;;3.25;1.50;;;;;;;;5029993;28;50368;-73
2021/12/02 09:38:41;;;;;;;;;6.50;3.00;;;;;;;;5048658;28;50287;-73
2021/12/02 09:41:07;;;;;;;;;2.50;2.50;;;;;;;;5048389;28;49820;-72
2021/12/02 09:43:32;;;;;;;;;3.50;3.50;;;;;;;;5048434;28;49966;-73
2021/12/02 09:45:57;;;;;;;;;2.50;1.75;;;;;;;;5048054;28;50886;-73
2021/12/02 09:48:22;;;;;;;;;3.50;3.50;;;;;;;;5048137;28;49741;-73
2021/12/02 09:51:07;;;;;;;;;6.25;5.00;;;;;;;;5048215;28;50176;-73
2021/12/02 09:53:38;;;;;;;;;8.25;6.00;;;;;;;;5048249;28;49752;-73
2021/12/02 09:56:13;;;;;;;;;6.25;6.25;;;;;;;;5047638;28;49790;-73
2021/12/02 09:58:38;;;;;;;;;5.00;5.00;;;;;;;;5047949;28;49660;-73
2021/12/02 10:03:38;;;;;;;;;1.00;1.00;;;;;;;;5048520;28;49724;-72
2021/12/02 10:06:06;;;;;;;;;1.00;1.00;;;;;;;;5047835;28;50690;-73
2021/12/02 10:08:39;;;;;;;;;4.75;3.50;;;;;;;;5029749;28;49602;-73
2021/12/02 10:11:11;;;;;;;;;4.75;2.00;;;;;;;;5048013;28;49785;-73
2021/12/02 10:13:44;;;;;;;;;3.00;3.00;;;;;;;;5047966;28;49584;-73
2021/12/02 10:16:14;;;;;;;;;4.50;3.00;;;;;;;;5047459;28;51549;-73
2021/12/02 10:21:52;;;;;;;;;2.75;2.75;;;;;;;;5004934;28;49900;-73
2021/12/02 10:24:20;;;;;;;;;5.50;3.50;;;;;;;;5041463;27;49799;-72
2021/12/02 10:26:53;;;;;;;;;5.50;5.25;;;;;;;;5029443;28;52426;-72
2021/12/02 10:29:21;;;;;;;;;4.00;4.00;;;;;;;;5029515;28;50007;-72
2021/12/02 10:31:47;;;;;;;;;17.75;12.00;;;;;;;;5047530;28;49676;-72
2021/12/02 10:34:13;;;;;;;;;32.25;28.00;;;;;;;;5047192;28;49950;-72
2021/12/02 10:36:40;;;;;;;;;14.25;12.25;;;;;;;;5046867;28;49820;-72
2021/12/02 10:39:14;;;;;;;;;9.00;6.50;;;;;;;;5047496;28;49876;-72
2021/12/02 10:41:43;;;;;;;;;42.25;33.50;;;;;;;;5047475;28;49771;-72
2021/12/02 10:44:11;;;;;;;;;62.25;45.75;;;;;;;;5047481;28;49841;-72
2021/12/02 10:46:38;;;;;;;;;44.50;41.25;;;;;;;;5047195;28;49882;-72
2021/12/02 10:49:04;;;;;;;;;28.25;27.50;;;;;;;;5047066;28;49707;-73
2021/12/02 10:51:53;;;;;;;;;12.50;11.75;;;;;;;;5047249;28;49926;-72
2021/12/02 10:54:19;;;;;;;;;10.50;7.25;;;;;;;;5029236;28;50216;-72
2021/12/02 10:56:46;;;;;;;;;27.75;21.00;;;;;;;;5046979;28;49720;-72
2021/12/02 10:59:25;;;;;;;;;18.25;15.25;;;;;;;;5047206;28;49751;-72
2021/12/02 11:01:51;;;;;;;;;25.25;24.50;;;;;;;;5047281;28;49811;-72
2021/12/02 11:04:17;;;;;;;;;33.00;25.25;;;;;;;;5046938;28;49627;-73
2021/12/02 11:06:43;;;;;;;;;20.50;18.75;;;;;;;;5046762;28;49850;-73
2021/12/02 11:09:28;;;;;;;;;2.25;2.00;;;;;;;;5047168;28;49675;-73
2021/12/02 11:12:11;;;;;;;;;22.25;21.25;;;;;;;;5028795;28;49927;-72
2021/12/02 11:14:38;;;;;;;;;25.75;22.75;;;;;;;;5047518;28;49936;-72
2021/12/02 11:17:11;;;;;;;;;6.50;5.75;;;;;;;;5046679;28;49702;-73
2021/12/02 11:19:37;;;;;;;;;5.75;5.25;;;;;;;;5046777;28;49809;-72
2021/12/02 11:22:10;;;;;;;;;1.00;1.00;;;;;;;;5046794;28;49841;-73
2021/12/02 11:24:36;;;;;;;;;0.00;0.00;;;;;;;;5046807;28;49825;-72
2021/12/02 11:27:05;;;;;;;;;1.50;0.00;;;;;;;;5028453;28;52064;-72
2021/12/02 11:29:49;;;;;;;;;2.00;2.00;;;;;;;;5046604;28;49728;-72
2021/12/02 11:32:23;;;;;;;;;16.25;13.25;;;;;;;;5046684;28;49750;-73
2021/12/02 11:34:58;;;;;;;;;6.00;6.00;;;;;;;;5047177;28;50248;-72
2021/12/02 11:37:24;;;;;;;;;59.00;44.50;;;;;;;;5046396;28;50647;-72
2021/12/02 11:39:50;;;;;;;;;7.75;6.50;;;;;;;;5046507;28;49556;-72
2021/12/02 11:42:15;;;;;;;;;2.00;1.00;;;;;;;;5046493;28;49708;-71
2021/12/02 11:44:41;;;;;;;;;1.75;1.75;;;;;;;;5046379;28;49727;-73
2021/12/02 11:47:06;;;;;;;;;2.00;2.00;;;;;;;;5029448;28;51761;-69
2021/12/02 11:49:32;;;;;;;;;1.00;1.00;;;;;;;;5052573;28;49666;-69
2021/12/02 11:51:57;;;;;;;;;1.00;1.00;;;;;;;;5034831;28;49984;-68
2021/12/02 11:54:22;;;;;;;;;3.00;2.00;;;;;;;;5049832;28;50281;-66
2021/12/02 11:56:48;;;;;;;;;1.00;0.00;;;;;;;;5033667;28;51558;-70
2021/12/02 11:59:15;;;;;;;;;0.00;0.00;;;;;;;;5050716;28;49561;-70
2021/12/02 12:01:42;;;;;;;;;1.75;0.75;;;;;;;;5054023;28;50019;-70
2021/12/02 12:04:09;;;;;;;;;0.00;0.00;;;;;;;;5056065;28;49791;-72
2021/12/02 12:06:36;;;;;;;;;2.75;1.00;;;;;;;;5061861;28;49826;-63
2021/12/02 12:09:09;;;;;;;;;1.00;1.00;;;;;;;;5059651;28;49365;-75
2021/12/02 12:11:35;;;;;;;;;0.75;0.75;;;;;;;;5052170;28;49724;-77
2021/12/02 12:14:00;;;;;;;;;2.00;0.50;;;;;;;;5053709;28;49961;-83
2021/12/02 12:16:27;;;;;;;;;1.00;1.00;;;;;;;;5034492;28;52673;-81
2021/12/02 12:18:54;;;;;;;;;1.00;0.00;;;;;;;;5052269;28;49719;-79
2021/12/02 12:21:33;;;;;;;;;0.75;0.75;;;;;;;;5032267;28;49755;-73
2021/12/02 12:24:00;;;;;;;;;0.75;0.00;;;;;;;;5050771;28;49936;-77
2021/12/02 12:26:35;;;;;;;;;0.00;0.00;;;;;;;;5049242;28;50564;-74
2021/12/02 12:29:07;;;;;;;;;0.00;0.00;;;;;;;;5041882;27;50261;-66
2021/12/02 12:31:51;;;;;;;;;0.00;0.00;;;;;;;;5030909;28;49774;-66
2021/12/02 12:34:33;;;;;;;;;1.25;1.25;;;;;;;;5048728;28;49845;-66
2021/12/02 12:37:01;;;;;;;;;1.00;1.00;;;;;;;;5028616;28;50047;-66
2021/12/02 12:39:33;;;;;;;;;7.00;7.00;;;;;;;;5045506;28;49731;-65
2021/12/02 12:42:16;;;;;;;;;1.00;1.00;;;;;;;;5066675;28;49811;-65
2021/12/02 12:44:45;;;;;;;;;4.00;3.00;;;;;;;;5049110;28;49615;-66
2021/12/02 12:47:11;;;;;;;;;2.25;2.00;;;;;;;;5048285;28;50688;-66
2021/12/02 12:49:36;;;;;;;;;2.00;2.00;;;;;;;;5067293;28;49839;-66
2021/12/02 12:52:13;;;;;;;;;1.75;1.00;;;;;;;;5058001;28;50138;-65
2021/12/02 12:54:40;;;;;;;;;1.25;1.25;;;;;;;;5049027;28;49663;-67
2021/12/02 12:57:06;;;;;;;;;0.00;0.00;;;;;;;;5048482;27;49756;-67
2021/12/02 12:59:47;;;;;;;;;2.25;2.00;;;;;;;;5094735;27;49752;-66
2021/12/02 13:02:14;;;;;;;;;1.25;0.25;;;;;;;;5119459;27;49782;-69
2021/12/02 13:04:52;;;;;;;;;1.00;1.00;;;;;;;;5155179;27;49938;-69
2021/12/02 13:07:19;;;;;;;;;0.50;0.00;;;;;;;;5028322;28;50282;-68
2021/12/02 13:09:54;;;;;;;;;1.50;0.00;;;;;;;;5028869;28;49925;-68
2021/12/02 13:12:21;;;;;;;;;6.50;2.00;;;;;;;;5028760;28;49898;-68
2021/12/02 13:14:50;;;;;;;;;2.50;1.00;;;;;;;;5028626;28;49330;-68
2021/12/02 13:17:33;;;;;;;;;1.00;0.00;;;;;;;;5029581;28;50357;-69
2021/12/02 13:19:59;;;;;;;;;1.00;1.00;;;;;;;;5026745;27;49740;-68
2021/12/02 13:22:24;;;;;;;;;0.25;0.25;;;;;;;;5047955;28;49868;-69
2021/12/02 13:24:50;;;;;;;;;4.50;3.00;;;;;;;;5033547;27;49893;-69
2021/12/02 13:27:21;;;;;;;;;4.00;2.00;;;;;;;;5089213;27;50460;-69
2021/12/02 13:29:46;;;;;;;;;0.75;0.25;;;;;;;;5135536;27;49657;-69
2021/12/02 13:32:11;;;;;;;;;4.75;3.75;;;;;;;;5074721;27;49939;-68
2021/12/02 13:34:37;;;;;;;;;2.75;2.25;;;;;;;;5048122;27;49832;-68
2021/12/02 13:37:05;;;;;;;;;1.00;1.00;;;;;;;;5047944;28;50773;-69
2021/12/02 13:39:34;;;;;;;;;1.75;0.00;;;;;;;;5048054;28;49820;-68
2021/12/02 13:42:02;;;;;;;;;1.00;1.00;;;;;;;;5089401;27;49850;-68
2021/12/02 13:44:30;;;;;;;;;1.00;1.00;;;;;;;;5048697;27;49562;-68
2021/12/02 13:46:58;;;;;;;;;1.50;0.50;;;;;;;;5048180;27;50488;-68
2021/12/02 13:49:33;;;;;;;;;0.00;0.00;;;;;;;;5047768;28;50015;-68
2021/12/02 13:54:57;;;;;;;;;0.25;0.25;;;;;;;;5036422;28;49837;-68
2021/12/02 13:57:22;;;;;;;;;2.25;1.00;;;;;;;;5047347;28;49597;-68
2021/12/02 13:59:48;;;;;;;;;4.75;3.00;;;;;;;;5054225;28;49709;-67
2021/12/02 14:02:17;;;;;;;;;3.00;1.25;;;;;;;;5084491;27;49357;-67
2021/12/02 14:04:44;;;;;;;;;0.25;0.25;;;;;;;;5065842;28;49607;-68
2021/12/02 14:07:24;;;;;;;;;2.00;1.00;;;;;;;;5065442;27;50145;-68
2021/12/02 14:09:51;;;;;;;;;2.50;1.00;;;;;;;;5064343;28;49369;-68
2021/12/02 14:12:17;;;;;;;;;2.50;1.25;;;;;;;;5065327;28;50036;-68
2021/12/02 14:14:56;;;;;;;;;1.25;1.00;;;;;;;;5065238;28;49171;-68
2021/12/02 14:17:21;;;;;;;;;0.00;0.00;;;;;;;;5080599;27;49988;-69
2021/12/02 14:20:19;;;;;;;;;2.50;1.00;;;;;;;;5172245;27;49451;-66
2021/12/02 14:22:49;;;;;;;;;1.75;0.75;;;;;;;;5111559;27;49548;-66
2021/12/02 14:25:15;;;;;;;;;4.00;2.50;;;;;;;;5171777;27;49432;-66
2021/12/02 14:27:40;;;;;;;;;2.50;1.75;;;;;;;;5081669;27;49825;-66
2021/12/02 14:30:13;;;;;;;;;4.75;3.00;;;;;;;;5060077;28;49779;-66
2021/12/02 14:32:39;;;;;;;;;0.75;0.75;;;;;;;;5060733;28;49576;-67
2021/12/02 14:35:15;;;;;;;;;1.50;1.50;;;;;;;;5047413;28;49694;-69
2021/12/02 14:37:41;;;;;;;;;0.00;0.00;;;;;;;;5046210;28;50830;-66
2021/12/02 14:40:08;;;;;;;;;5.50;2.50;;;;;;;;5048187;28;49744;-67
2021/12/02 14:42:33;;;;;;;;;4.00;2.75;;;;;;;;5047243;28;49653;-64
2021/12/02 14:44:58;;;;;;;;;1.75;1.00;;;;;;;;5047229;28;49835;-64
2021/12/02 14:47:24;;;;;;;;;1.00;1.00;;;;;;;;5046849;28;49727;-65
2021/12/02 14:49:51;;;;;;;;;0.25;0.25;;;;;;;;5049835;28;49661;-66
2021/12/02 14:52:24;;;;;;;;;0.50;0.50;;;;;;;;5050380;28;49778;-65
2021/12/02 14:54:52;;;;;;;;;2.00;2.00;;;;;;;;5055267;28;49684;-65
2021/12/02 14:57:18;;;;;;;;;10.00;7.75;;;;;;;;5047139;28;50311;-66
2021/12/02 15:00:03;;;;;;;;;6.75;6.00;;;;;;;;5047393;27;50048;-65
2021/12/02 15:02:30;;;;;;;;;3.00;3.00;;;;;;;;5047210;28;49694;-65